Overview Statistics Trail Chart Weather Telemetry Raw packets
 

This is the latest recevied weather packets stored in our database for station/object IT9DBI-3. If no packets are shown the sender has not sent any weather packets the latest 10 day(s).

<< 21 22 23 24 25 26 27 >>
Time Temp. Humidity Pressure Rain* Wind** Luminosity Snow
1787926658 42.78° C 22% 1013.6 hPa - - - -
1787925457 42.22° C 26% 1013.8 hPa - - - -
1787924256 41.11° C 28% 1014 hPa - - - -
1787923055 40° C 31% 1014.4 hPa - - - -
1787921853 41.11° C 31% 1014.6 hPa - - - -
1787920652 40° C 33% 1014.9 hPa - - - -
1787919451 40° C 31% 1015.1 hPa - - - -
1787918249 38.89° C 33% 1015.5 hPa - - - -
1787917048 37.78° C 33% 1015.6 hPa - - - -
1787915847 37.78° C 35% 1015.8 hPa - - - -
1787914645 38.33° C 32% 1015.7 hPa - - - -
1787913444 37.78° C 31% 1015.8 hPa - - - -
1787911543 38.89° C 25% 1015.9 hPa - - - -
1787910341 37.78° C 25% 1016.1 hPa - - - -
1787909140 37.78° C 30% 1016.2 hPa - - - -
1787907939 37.78° C 27% 1016.3 hPa - - - -
1787906737 37.22° C 25% 1016.3 hPa - - - -
1787905536 37.22° C 27% 1016.1 hPa - - - -
1787904335 38.33° C 19% 1016 hPa - - - -
1787903134 37.78° C 25% 1016 hPa - - - -
1787901932 37.78° C 26% 1015.8 hPa - - - -
1787900731 36.11° C 23% 1015.8 hPa - - - -
1787898328 32.78° C 33% 1015.8 hPa - - - -
1787897127 32.78° C 28% 1015.7 hPa - - - -
1787895926 31.67° C 30% 1015.9 hPa - - - -

* Rain since midnight (hover to see other rain measurements)
** Current wind speed in m/s (hover to see current wind gust speed)